Manchaug, Massachusetts
Current Conditions -  °F | °C
As of 5:54 AM on Friday 31 Oct 2014 (Local Time) from KORH Reporting Station
Overcast Overcast  
Wind Chill: 37°   Ceiling: 4900
Heat Index: 40°   Visibility: 10mi
Dew Point: 33°   Wind: 5mph
Humidity: 77%   Direction: 40°NE
Pressure: 30"   Gusts: NA
Location:  42.09°N, 71.75°W
Report Text: KORH 310954Z AUTO 04004KT 10SM OVC049 04/01 A3000 RMK AO2 SLP166 T00440006
Loading
Personal Weather Stations






























Interactive Weather Map
Tropical Storm Tracking
New forecast layout! Learn more

10-Day Weather Forecast

Advertisements
Track Severe Weather on mobile